createdAt,value
2018-09-13T00:01:38.162Z,10.80
2018-09-13T00:04:07.523Z,11.57
2018-09-13T00:06:36.919Z,10.88
2018-09-13T00:09:08.879Z,11.85
2018-09-13T00:11:38.733Z,16.12
2018-09-13T00:14:08.041Z,12.03
2018-09-13T00:16:37.451Z,11.83
2018-09-13T00:19:06.970Z,12.15
2018-09-13T00:21:36.329Z,13.55
2018-09-13T00:24:05.695Z,16.20
2018-09-13T00:26:35.043Z,11.65
2018-09-13T00:29:04.490Z,12.13
2018-09-13T00:31:33.816Z,11.90
2018-09-13T00:34:03.215Z,11.70
2018-09-13T00:36:32.614Z,10.82
2018-09-13T00:39:01.991Z,11.20
2018-09-13T00:41:31.321Z,9.98
2018-09-13T00:44:00.726Z,11.43
2018-09-13T00:46:30.147Z,11.38
2018-09-13T00:48:59.513Z,12.00
2018-09-13T00:51:29.006Z,9.95
2018-09-13T00:53:58.365Z,15.03
2018-09-13T00:56:27.879Z,14.55
2018-09-13T00:58:57.385Z,16.27
2018-09-13T01:01:26.738Z,11.08
2018-09-13T01:03:56.134Z,10.10
2018-09-13T01:06:25.556Z,10.20
2018-09-13T01:08:54.955Z,10.55
2018-09-13T01:11:23.309Z,9.85
2018-09-13T01:13:52.714Z,10.78
2018-09-13T01:16:22.226Z,10.70
2018-09-13T01:18:51.675Z,10.25
2018-09-13T01:21:21.209Z,10.05
2018-09-13T01:23:50.584Z,12.43
2018-09-13T01:26:19.987Z,12.40
2018-09-13T01:28:49.351Z,9.50
2018-09-13T01:31:18.761Z,9.95
2018-09-13T01:33:48.127Z,9.10
2018-09-13T01:36:17.483Z,9.48
2018-09-13T01:38:46.853Z,9.83
2018-09-13T01:41:16.255Z,11.15
2018-09-13T01:43:45.615Z,8.30
2018-09-13T01:46:15.014Z,9.23
2018-09-13T01:48:44.380Z,10.35
2018-09-13T01:51:13.734Z,13.22
2018-09-13T01:53:43.048Z,11.60
2018-09-13T01:56:12.398Z,19.60
2018-09-13T01:58:41.823Z,11.10
2018-09-13T02:01:11.243Z,9.23
2018-09-13T02:03:40.646Z,10.68
2018-09-13T02:06:10.025Z,13.22
2018-09-13T02:08:39.419Z,9.90
2018-09-13T02:11:08.909Z,9.45
2018-09-13T02:13:38.287Z,14.35
2018-09-13T02:16:07.916Z,9.85
2018-09-13T02:18:37.366Z,11.18
2018-09-13T02:21:06.869Z,9.75
2018-09-13T02:23:36.282Z,10.90
2018-09-13T02:26:05.847Z,9.55
2018-09-13T02:28:35.188Z,9.63
2018-09-13T02:31:29.059Z,10.58
2018-09-13T02:33:58.490Z,15.20
2018-09-13T02:36:27.869Z,9.58
2018-09-13T02:38:57.252Z,11.83
2018-09-13T02:41:26.762Z,10.50
2018-09-13T02:43:56.220Z,11.85
2018-09-13T02:46:25.615Z,14.50
2018-09-13T02:48:55.022Z,13.00
2018-09-13T02:51:24.446Z,8.78
2018-09-13T02:53:53.838Z,11.00
2018-09-13T02:56:23.241Z,16.95
2018-09-13T02:58:52.666Z,9.70
2018-09-13T03:01:22.296Z,10.30
2018-09-13T03:03:51.766Z,9.85
2018-09-13T03:06:21.186Z,10.05
2018-09-13T03:08:50.566Z,10.80
2018-09-13T03:11:20.053Z,10.18
2018-09-13T03:13:49.427Z,10.32
2018-09-13T03:16:19.566Z,11.18
2018-09-13T03:18:49.496Z,10.80
2018-09-13T03:21:18.878Z,9.80
2018-09-13T03:23:48.350Z,15.50
2018-09-13T03:26:17.929Z,12.03
2018-09-13T03:28:47.440Z,13.35
2018-09-13T03:31:16.841Z,15.60
2018-09-13T03:33:46.239Z,14.60
2018-09-13T03:36:15.645Z,12.78
2018-09-13T03:38:45.129Z,12.37
2018-09-13T03:41:14.502Z,13.75
2018-09-13T03:43:43.866Z,15.23
2018-09-13T03:46:13.330Z,14.30
2018-09-13T03:48:42.745Z,16.62
2018-09-13T03:51:12.130Z,16.65
2018-09-13T03:53:41.540Z,16.45
2018-09-13T03:56:11.418Z,19.32
2018-09-13T03:58:40.913Z,17.65
2018-09-13T04:01:10.299Z,14.83
2018-09-13T04:03:39.684Z,13.05
2018-09-13T04:06:09.088Z,14.33
2018-09-13T04:08:38.605Z,12.93
2018-09-13T04:11:08.085Z,11.25
2018-09-13T04:13:38.101Z,9.50
2018-09-13T04:16:07.577Z,11.50
2018-09-13T04:18:37.199Z,11.60
2018-09-13T04:21:06.808Z,12.25
2018-09-13T04:23:36.169Z,12.60
2018-09-13T04:26:05.605Z,9.93
2018-09-13T04:28:34.999Z,12.05
2018-09-13T04:31:05.311Z,10.03
2018-09-13T04:33:34.792Z,8.80
2018-09-13T04:36:04.324Z,10.08
2018-09-13T04:38:35.263Z,13.05
2018-09-13T04:41:04.686Z,11.45
2018-09-13T04:43:34.084Z,12.37
2018-09-13T04:46:06.177Z,15.75
2018-09-13T04:48:35.773Z,14.73
2018-09-13T04:51:05.305Z,13.55
2018-09-13T04:53:35.543Z,12.63
2018-09-13T04:56:05.222Z,14.05
2018-09-13T04:58:34.693Z,16.48
2018-09-13T05:01:04.236Z,19.20
2018-09-13T05:03:33.727Z,13.72
2018-09-13T05:06:03.165Z,12.18
2018-09-13T05:08:32.751Z,16.60
2018-09-13T05:11:02.788Z,13.38
2018-09-13T05:13:32.231Z,15.10
2018-09-13T05:16:01.657Z,16.57
2018-09-13T05:18:31.102Z,13.45
2018-09-13T05:21:00.549Z,13.95
2018-09-13T05:23:29.929Z,15.75
2018-09-13T05:25:59.394Z,13.83
2018-09-13T05:28:28.847Z,12.30
2018-09-13T05:30:57.268Z,15.88
2018-09-13T05:33:27.504Z,14.90
2018-09-13T05:35:56.991Z,13.60
2018-09-13T05:38:26.500Z,16.25
2018-09-13T05:40:55.910Z,15.70
2018-09-13T05:43:25.318Z,15.70
2018-09-13T05:45:54.724Z,13.88
2018-09-13T05:48:24.231Z,16.80
2018-09-13T05:50:53.782Z,20.02
2018-09-13T05:53:23.288Z,15.03
2018-09-13T05:55:52.744Z,15.98
2018-09-13T05:58:22.195Z,17.40
2018-09-13T06:00:52.210Z,18.65
2018-09-13T06:03:21.817Z,15.75
2018-09-13T06:05:51.467Z,19.27
2018-09-13T06:08:20.888Z,17.07
2018-09-13T06:10:50.321Z,18.17
2018-09-13T06:13:19.694Z,16.37
2018-09-13T06:15:49.104Z,15.72
2018-09-13T06:18:18.531Z,15.45
2018-09-13T06:20:48.082Z,15.98
2018-09-13T06:23:17.489Z,20.85
2018-09-13T06:25:46.922Z,16.42
2018-09-13T06:28:16.337Z,20.90
2018-09-13T06:30:45.737Z,17.95
2018-09-13T06:33:15.231Z,15.63
2018-09-13T06:35:44.605Z,19.32
2018-09-13T06:38:14.169Z,18.10
2018-09-13T06:40:43.632Z,19.42
2018-09-13T06:43:13.061Z,18.60
2018-09-13T06:45:43.226Z,18.87
2018-09-13T06:48:12.705Z,19.07
2018-09-13T06:50:42.104Z,21.40
2018-09-13T06:53:11.479Z,24.90
2018-09-13T06:55:40.975Z,20.43
2018-09-13T06:58:10.381Z,19.85
2018-09-13T07:00:39.734Z,24.37
2018-09-13T07:03:09.144Z,20.90
2018-09-13T07:05:38.672Z,19.57
2018-09-13T07:08:08.063Z,18.70
2018-09-13T07:10:37.476Z,22.32
2018-09-13T07:13:06.885Z,21.23
2018-09-13T07:15:36.305Z,21.30
2018-09-13T07:18:06.028Z,24.70
2018-09-13T07:20:35.484Z,25.40
2018-09-13T07:23:04.974Z,27.42
2018-09-13T07:25:34.414Z,25.35
2018-09-13T07:28:03.916Z,26.40
2018-09-13T07:30:33.367Z,21.10
2018-09-13T07:33:02.766Z,21.37
2018-09-13T07:35:32.253Z,19.77
2018-09-13T07:38:01.648Z,19.85
2018-09-13T07:40:31.154Z,19.40
2018-09-13T07:43:00.636Z,20.75
2018-09-13T07:45:30.168Z,22.07
2018-09-13T07:48:00.225Z,20.77
2018-09-13T07:50:29.842Z,23.85
2018-09-13T07:52:59.322Z,17.98
2018-09-13T07:55:28.767Z,19.50
2018-09-13T07:57:58.656Z,23.27
2018-09-13T08:00:28.204Z,17.82
2018-09-13T08:02:57.649Z,19.07
2018-09-13T08:05:27.075Z,16.12
2018-09-13T08:07:56.498Z,15.50
2018-09-13T08:10:26.586Z,19.70
2018-09-13T08:12:55.985Z,18.87
2018-09-13T08:15:25.374Z,21.77
2018-09-13T08:17:54.770Z,18.52
2018-09-13T08:20:24.336Z,24.02
2018-09-13T08:22:53.903Z,19.42
2018-09-13T08:25:23.315Z,21.17
2018-09-13T08:27:52.777Z,20.77
2018-09-13T08:30:22.286Z,21.10
2018-09-13T08:32:51.708Z,21.30
2018-09-13T08:35:21.169Z,24.60
2018-09-13T08:37:50.661Z,22.90
2018-09-13T08:40:21.070Z,23.00
2018-09-13T08:42:50.462Z,20.75
2018-09-13T08:45:19.879Z,20.97
2018-09-13T08:47:49.377Z,23.60
2018-09-13T08:50:18.917Z,20.95
2018-09-13T08:52:48.359Z,23.27
2018-09-13T08:55:17.941Z,21.33
2018-09-13T08:57:47.395Z,26.45
2018-09-13T09:00:16.857Z,21.95
2018-09-13T09:02:46.295Z,19.75
2018-09-13T09:05:15.726Z,25.43
2018-09-13T09:07:45.249Z,23.60
2018-09-13T09:10:14.682Z,23.30
2018-09-13T09:12:44.103Z,25.20
2018-09-13T09:15:13.590Z,24.67
2018-09-13T09:17:42.995Z,24.92
2018-09-13T09:20:12.393Z,22.67
2018-09-13T09:22:41.807Z,23.60
2018-09-13T09:25:11.286Z,21.82
2018-09-13T09:27:40.705Z,20.48
2018-09-13T09:30:10.165Z,21.35
2018-09-13T09:32:39.622Z,22.05
2018-09-13T09:35:09.077Z,19.95
2018-09-13T09:37:39.139Z,25.10
2018-09-13T09:40:09.019Z,22.30
2018-09-13T09:42:38.459Z,20.23
2018-09-13T09:45:07.962Z,19.75
2018-09-13T09:47:37.358Z,19.82
2018-09-13T09:50:07.256Z,19.37
2018-09-13T09:52:36.686Z,23.87
2018-09-13T09:55:06.045Z,20.85
2018-09-13T09:57:35.513Z,27.10
2018-09-13T10:00:05.222Z,17.40
2018-09-13T10:02:34.788Z,24.18
2018-09-13T10:05:04.362Z,17.00
2018-09-13T10:07:33.878Z,20.23
2018-09-13T10:10:03.420Z,19.60
2018-09-13T10:12:32.863Z,27.15
2018-09-13T10:15:07.293Z,21.75
2018-09-13T10:17:41.753Z,21.52
2018-09-13T10:20:16.428Z,19.15
2018-09-13T10:22:51.088Z,21.85
2018-09-13T10:27:27.354Z,20.43
2018-09-13T10:30:02.050Z,19.32
2018-09-13T10:32:36.648Z,18.05
2018-09-13T10:35:11.319Z,19.92
2018-09-13T10:37:45.954Z,22.82
2018-09-13T10:40:21.625Z,15.93
2018-09-13T10:42:56.292Z,19.10
2018-09-13T10:45:30.819Z,17.50
2018-09-13T10:48:05.445Z,21.80
2018-09-13T10:50:43.748Z,22.82
2018-09-13T10:53:21.367Z,15.78
2018-09-13T10:55:51.006Z,16.40
2018-09-13T10:58:20.401Z,19.17
2018-09-13T11:00:49.885Z,17.30
2018-09-13T11:03:19.321Z,19.60
2018-09-13T11:05:48.777Z,17.52
2018-09-13T11:08:18.204Z,16.90
2018-09-13T11:10:47.786Z,18.07
2018-09-13T11:13:21.569Z,19.55
2018-09-13T11:15:51.189Z,16.90
2018-09-13T11:18:20.621Z,21.12
2018-09-13T11:20:50.035Z,14.40
2018-09-13T11:23:19.709Z,18.15
2018-09-13T11:25:49.182Z,16.17
2018-09-13T11:28:18.528Z,20.45
2018-09-13T11:30:51.992Z,20.92
2018-09-13T11:33:21.424Z,18.70
2018-09-13T11:35:50.930Z,16.25
2018-09-13T11:38:21.422Z,12.75
2018-09-13T11:40:52.100Z,20.75
2018-09-13T11:43:21.416Z,14.05
2018-09-13T11:45:51.925Z,14.63
2018-09-13T11:48:21.451Z,15.00
2018-09-13T11:50:51.546Z,15.63
2018-09-13T11:53:21.050Z,15.63
2018-09-13T11:55:50.428Z,11.28
2018-09-13T11:58:19.845Z,12.85
2018-09-13T12:00:49.315Z,13.83
2018-09-13T12:03:18.803Z,14.85
2018-09-13T12:05:48.340Z,14.78
2018-09-13T12:08:17.933Z,11.33
2018-09-13T12:10:47.445Z,13.55
2018-09-13T12:16:03.166Z,16.50
2018-09-13T12:18:32.618Z,14.73
2018-09-13T12:21:02.086Z,13.65
2018-09-13T12:23:31.754Z,19.42
2018-09-13T12:26:01.235Z,13.20
2018-09-13T12:28:30.571Z,12.23
2018-09-13T12:31:00.013Z,13.50
2018-09-13T12:33:29.472Z,13.43
2018-09-13T12:35:58.874Z,18.17
2018-09-13T12:38:28.316Z,12.68
2018-09-13T12:40:57.914Z,18.45
2018-09-13T12:43:27.319Z,14.03
2018-09-13T12:45:56.809Z,11.50
2018-09-13T12:48:26.253Z,15.90
2018-09-13T12:50:55.724Z,12.28
2018-09-13T12:53:25.227Z,11.08
2018-09-13T12:55:55.597Z,10.78
2018-09-13T12:58:26.257Z,13.80
2018-09-13T13:00:55.687Z,10.30
2018-09-13T13:03:25.142Z,12.15
2018-09-13T13:05:54.583Z,11.63
2018-09-13T13:08:23.980Z,8.60
2018-09-13T13:10:53.435Z,14.98
2018-09-13T13:13:22.980Z,11.75
2018-09-13T13:15:53.412Z,12.18
2018-09-13T13:18:22.860Z,9.48
2018-09-13T13:20:52.393Z,10.30
2018-09-13T13:23:21.773Z,11.08
2018-09-13T13:25:51.267Z,11.22
2018-09-13T13:28:20.762Z,9.08
2018-09-13T13:30:50.174Z,9.90
2018-09-13T13:33:19.636Z,10.68
2018-09-13T13:35:49.011Z,14.15
2018-09-13T13:38:18.441Z,13.03
2018-09-13T13:40:47.881Z,8.00
2018-09-13T13:43:17.316Z,9.10
2018-09-13T13:45:46.692Z,12.50
2018-09-13T13:48:16.089Z,10.70
2018-09-13T13:50:45.502Z,11.48
2018-09-13T13:53:15.000Z,7.80
2018-09-13T13:55:44.425Z,7.83
2018-09-13T13:58:13.945Z,7.30
2018-09-13T14:00:43.477Z,8.58
2018-09-13T14:03:13.032Z,7.45
2018-09-13T14:05:42.428Z,5.60
2018-09-13T14:08:11.890Z,12.45
2018-09-13T14:10:41.356Z,7.75
2018-09-13T14:13:10.816Z,8.20
2018-09-13T14:15:41.870Z,7.00
2018-09-13T14:18:11.445Z,15.23
2018-09-13T14:20:41.146Z,9.93
2018-09-13T14:23:10.586Z,13.83
2018-09-13T14:25:40.023Z,13.50
2018-09-13T14:28:09.570Z,8.73
2018-09-13T14:30:39.012Z,11.60
2018-09-13T14:33:08.502Z,7.55
2018-09-13T14:35:38.553Z,10.72
2018-09-13T14:38:07.994Z,10.53
2018-09-13T14:40:37.460Z,11.10
2018-09-13T14:43:06.984Z,9.30
2018-09-13T14:45:36.430Z,13.15
2018-09-13T14:48:05.951Z,11.05
2018-09-13T14:50:35.555Z,8.80
2018-09-13T14:53:04.967Z,9.68
2018-09-13T14:55:34.384Z,14.13
2018-09-13T14:58:03.783Z,9.23
2018-09-13T15:00:33.303Z,11.10
2018-09-13T15:03:02.834Z,10.10
2018-09-13T15:05:32.251Z,11.25
2018-09-13T15:08:01.754Z,14.63
2018-09-13T15:10:31.181Z,13.90
2018-09-13T15:13:00.625Z,14.58
2018-09-13T15:15:30.028Z,14.30
2018-09-13T15:17:59.407Z,19.07
2018-09-13T15:20:28.935Z,15.30
2018-09-13T15:22:58.416Z,18.55
2018-09-13T15:25:27.834Z,11.20
2018-09-13T15:27:57.289Z,11.33
2018-09-13T15:30:26.863Z,16.95
2018-09-13T15:32:56.347Z,15.95
2018-09-13T15:35:25.795Z,12.18
2018-09-13T15:37:55.308Z,18.12
2018-09-13T15:40:24.896Z,14.78
2018-09-13T15:42:54.433Z,17.35
2018-09-13T15:45:23.899Z,14.45
2018-09-13T15:47:53.329Z,21.52
2018-09-13T15:50:22.724Z,16.30
2018-09-13T15:52:52.197Z,15.10
2018-09-13T15:55:21.553Z,14.65
2018-09-13T15:57:50.961Z,14.98
2018-09-13T16:00:20.499Z,13.93
2018-09-13T16:02:50.005Z,14.85
2018-09-13T16:05:19.471Z,14.68
2018-09-13T16:07:48.964Z,13.68
2018-09-13T16:10:18.434Z,12.47
2018-09-13T16:12:47.872Z,13.13
2018-09-13T16:15:17.343Z,11.50
2018-09-13T16:17:46.743Z,9.80
2018-09-13T16:20:16.260Z,12.45
2018-09-13T16:22:45.650Z,14.03
2018-09-13T16:25:15.124Z,11.78
2018-09-13T16:27:44.696Z,8.48
2018-09-13T16:30:14.091Z,11.40
2018-09-13T16:32:43.578Z,14.55
2018-09-13T16:35:13.268Z,6.83
2018-09-13T16:37:48.184Z,7.83
2018-09-13T16:40:22.710Z,10.68
2018-09-13T16:42:57.310Z,9.10
2018-09-13T16:45:30.715Z,8.03
2018-09-13T16:48:02.433Z,9.15
2018-09-13T16:50:31.915Z,8.38
2018-09-13T16:53:01.477Z,7.62
2018-09-13T16:55:30.771Z,10.65
2018-09-13T16:58:00.197Z,13.00
2018-09-13T17:00:29.698Z,7.55
2018-09-13T17:02:59.138Z,6.85
2018-09-13T17:05:28.445Z,9.13
2018-09-13T17:07:57.884Z,9.50
2018-09-13T17:10:27.335Z,9.63
2018-09-13T17:12:56.757Z,7.50
2018-09-13T17:15:26.141Z,9.18
2018-09-13T17:17:56.608Z,8.55
2018-09-13T17:20:26.011Z,8.18
2018-09-13T17:22:55.571Z,9.50
2018-09-13T17:25:25.141Z,5.33
2018-09-13T17:27:54.515Z,7.42
2018-09-13T17:30:23.963Z,7.60
2018-09-13T17:32:53.329Z,7.35
2018-09-13T17:35:22.820Z,8.98
2018-09-13T17:37:52.241Z,7.97
2018-09-13T17:40:21.669Z,6.60
2018-09-13T17:42:51.095Z,9.73
2018-09-13T17:45:20.520Z,10.50
2018-09-13T17:47:50.010Z,10.50
2018-09-13T17:50:19.475Z,5.60
2018-09-13T17:52:49.243Z,6.70
2018-09-13T17:55:18.661Z,12.53
2018-09-13T17:57:48.040Z,7.25
2018-09-13T18:00:17.899Z,6.58
2018-09-13T18:02:47.750Z,9.15
2018-09-13T18:05:17.081Z,8.50
2018-09-13T18:07:46.638Z,7.70
2018-09-13T18:10:16.082Z,8.85
2018-09-13T18:12:46.047Z,8.55
2018-09-13T18:15:15.540Z,8.48
2018-09-13T18:17:44.775Z,7.08
2018-09-13T18:20:14.313Z,9.38
2018-09-13T18:22:44.115Z,7.65
2018-09-13T18:25:13.543Z,8.45
2018-09-13T18:27:42.967Z,12.13
2018-09-13T18:30:12.542Z,9.00
2018-09-13T18:32:41.997Z,10.38
2018-09-13T18:35:11.483Z,8.08
2018-09-13T18:37:40.823Z,10.05
2018-09-13T18:40:10.226Z,10.40
2018-09-13T18:42:39.680Z,7.25
2018-09-13T18:45:09.275Z,7.33
2018-09-13T18:47:38.625Z,10.68
2018-09-13T18:50:08.039Z,9.03
2018-09-13T18:52:37.443Z,8.53
2018-09-13T18:55:06.904Z,11.28
2018-09-13T18:57:36.271Z,8.95
2018-09-13T19:00:06.154Z,8.48
2018-09-13T19:02:35.529Z,11.70
2018-09-13T19:05:04.998Z,8.63
2018-09-13T19:07:40.546Z,10.88
2018-09-13T19:10:09.925Z,11.00
2018-09-13T19:12:39.344Z,10.88
2018-09-13T19:15:08.779Z,10.43
2018-09-13T19:17:38.147Z,10.50
2018-09-13T19:20:07.569Z,11.15
2018-09-13T19:22:36.904Z,9.58
2018-09-13T19:25:06.881Z,9.38
2018-09-13T19:27:36.317Z,8.93
2018-09-13T19:30:06.027Z,8.35
2018-09-13T19:32:35.443Z,7.10
2018-09-13T19:35:04.944Z,7.40
2018-09-13T19:37:34.362Z,10.82
2018-09-13T19:40:03.745Z,8.50
2018-09-13T19:42:33.214Z,9.95
2018-09-13T19:45:02.608Z,8.78
2018-09-13T19:47:31.981Z,8.23
2018-09-13T19:50:01.389Z,9.18
2018-09-13T19:52:30.810Z,10.20
2018-09-13T19:55:00.265Z,9.45
2018-09-13T19:57:29.682Z,11.33
2018-09-13T19:59:59.051Z,10.00
2018-09-13T20:02:28.530Z,11.43
2018-09-13T20:04:57.957Z,8.80
2018-09-13T20:07:27.716Z,8.30
2018-09-13T20:09:57.164Z,10.98
2018-09-13T20:12:26.556Z,9.23
2018-09-13T20:14:56.283Z,8.73
2018-09-13T20:17:25.811Z,10.48
2018-09-13T20:19:55.229Z,9.98
2018-09-13T20:22:25.101Z,9.85
2018-09-13T20:24:54.514Z,9.25
2018-09-13T20:27:23.848Z,9.53
2018-09-13T20:29:53.264Z,10.03
2018-09-13T20:32:22.744Z,11.85
2018-09-13T20:34:52.106Z,11.90
2018-09-13T20:37:21.556Z,11.48
2018-09-13T20:39:50.879Z,12.45
2018-09-13T20:42:20.289Z,13.28
2018-09-13T20:44:49.647Z,10.58
2018-09-13T20:47:19.067Z,10.20
2018-09-13T20:49:48.455Z,10.45
2018-09-13T20:52:17.822Z,11.57
2018-09-13T20:54:48.273Z,11.60
2018-09-13T20:57:17.633Z,10.95
2018-09-13T20:59:46.997Z,9.23
2018-09-13T21:02:16.439Z,9.95
2018-09-13T21:04:45.903Z,14.03
2018-09-13T21:07:15.279Z,11.20
2018-09-13T21:09:44.723Z,10.85
2018-09-13T21:12:14.073Z,12.25
2018-09-13T21:14:43.459Z,11.40
2018-09-13T21:17:12.956Z,11.57
2018-09-13T21:19:42.279Z,12.40
2018-09-13T21:22:12.092Z,14.07
2018-09-13T21:24:41.498Z,12.07
2018-09-13T21:27:10.951Z,16.15
2018-09-13T21:29:40.373Z,13.75
2018-09-13T21:32:09.656Z,16.73
2018-09-13T21:34:39.054Z,18.82
2018-09-13T21:37:08.413Z,13.15
2018-09-13T21:39:37.828Z,15.55
2018-09-13T21:42:07.315Z,16.85
2018-09-13T21:44:36.630Z,18.02
2018-09-13T21:47:06.016Z,15.35
2018-09-13T21:49:35.424Z,21.85
2018-09-13T21:52:04.833Z,17.67
2018-09-13T21:54:34.252Z,19.87
2018-09-13T21:57:03.717Z,17.75
2018-09-13T21:59:33.059Z,17.02
2018-09-13T22:02:02.428Z,22.55
2018-09-13T22:04:31.794Z,21.27
2018-09-13T22:07:01.190Z,18.62
2018-09-13T22:09:30.592Z,19.05
2018-09-13T22:11:59.915Z,20.55
2018-09-13T22:14:29.299Z,21.27
2018-09-13T22:16:58.687Z,24.20
2018-09-13T22:19:28.953Z,21.48
2018-09-13T22:21:58.364Z,22.13
2018-09-13T22:24:27.778Z,23.15
2018-09-13T22:26:57.228Z,21.97
2018-09-13T22:29:26.508Z,22.93
2018-09-13T22:31:55.987Z,29.00
2018-09-13T22:34:25.311Z,23.38
2018-09-13T22:36:54.725Z,26.25
2018-09-13T22:39:24.106Z,27.42
2018-09-13T22:41:53.530Z,28.60
2018-09-13T22:44:22.946Z,30.30
2018-09-13T22:46:52.298Z,30.97
2018-09-13T22:49:21.723Z,33.90
2018-09-13T22:51:51.115Z,27.27
2018-09-13T22:54:20.431Z,29.37
2018-09-13T22:56:49.827Z,35.08
2018-09-13T22:59:19.255Z,32.17
2018-09-13T23:01:48.604Z,31.33
2018-09-13T23:04:17.984Z,31.55
2018-09-13T23:06:47.382Z,30.40
2018-09-13T23:09:16.774Z,29.52
2018-09-13T23:11:46.166Z,35.23
2018-09-13T23:14:15.536Z,35.17
2018-09-13T23:16:49.576Z,32.35
2018-09-13T23:19:14.238Z,36.68
2018-09-13T23:21:43.627Z,39.10
2018-09-13T23:24:12.944Z,38.53
2018-09-13T23:26:42.253Z,32.73
2018-09-13T23:29:11.663Z,39.92
2018-09-13T23:31:40.993Z,33.30
2018-09-13T23:34:10.326Z,33.80
2018-09-13T23:36:39.704Z,44.30
2018-09-13T23:39:10.433Z,40.70
2018-09-13T23:41:40.517Z,32.60
2018-09-13T23:44:09.981Z,40.50
2018-09-13T23:46:39.328Z,35.75
2018-09-13T23:49:08.696Z,36.53
2018-09-13T23:51:38.059Z,37.23
2018-09-13T23:54:07.579Z,33.40
2018-09-13T23:56:36.906Z,35.73
2018-09-13T23:59:06.287Z,35.63
